createdAt,value
2018-07-21T00:01:01.148Z,44.32
2018-07-21T00:03:29.794Z,44.88
2018-07-21T00:05:58.418Z,44.93
2018-07-21T00:08:27.383Z,44.68
2018-07-21T00:10:56.055Z,45.11
2018-07-21T00:13:24.659Z,45.50
2018-07-21T00:15:53.763Z,45.81
2018-07-21T00:18:22.440Z,46.53
2018-07-21T00:20:51.075Z,46.74
2018-07-21T00:23:19.963Z,46.48
2018-07-21T00:25:49.030Z,47.03
2018-07-21T00:28:17.945Z,47.10
2018-07-21T00:30:46.625Z,46.55
2018-07-21T00:33:15.888Z,46.94
2018-07-21T00:35:44.763Z,47.16
2018-07-21T00:38:13.390Z,47.11
2018-07-21T00:40:42.097Z,47.88
2018-07-21T00:43:11.460Z,47.52
2018-07-21T00:45:40.066Z,47.61
2018-07-21T00:48:08.782Z,47.81
2018-07-21T00:50:37.468Z,48.41
2018-07-21T00:53:06.151Z,48.20
2018-07-21T00:55:34.834Z,49.07
2018-07-21T00:58:03.518Z,48.62
2018-07-21T01:00:32.554Z,49.02
2018-07-21T01:03:01.221Z,49.11
2018-07-21T01:05:30.006Z,48.84
2018-07-21T01:07:58.705Z,48.91
2018-07-21T01:10:27.393Z,49.13
2018-07-21T01:12:56.046Z,49.93
2018-07-21T01:15:24.733Z,49.94
2018-07-21T01:17:53.422Z,49.67
2018-07-21T01:20:22.249Z,50.10
2018-07-21T01:22:50.895Z,49.91
2018-07-21T01:25:19.845Z,49.52
2018-07-21T01:27:48.851Z,50.05
2018-07-21T01:30:17.451Z,50.11
2018-07-21T01:32:46.198Z,49.81
2018-07-21T01:35:15.130Z,49.71
2018-07-21T01:37:44.311Z,50.38
2018-07-21T01:40:13.335Z,50.72
2018-07-21T01:42:41.999Z,50.73
2018-07-21T01:45:10.810Z,51.31
2018-07-21T01:47:40.097Z,51.06
2018-07-21T01:50:09.060Z,50.95
2018-07-21T01:52:37.786Z,50.85
2018-07-21T01:55:06.950Z,51.02
2018-07-21T01:57:35.874Z,51.85
2018-07-21T02:00:06.702Z,52.07
2018-07-21T02:02:35.579Z,51.50
2018-07-21T02:05:06.626Z,51.88
2018-07-21T02:07:35.841Z,51.75
2018-07-21T02:10:04.973Z,52.21
2018-07-21T02:12:34.038Z,52.46
2018-07-21T02:15:02.658Z,51.98
2018-07-21T02:17:31.285Z,52.40
2018-07-21T02:20:00.413Z,52.39
2018-07-21T02:22:29.142Z,52.54
2018-07-21T02:24:57.847Z,51.93
2018-07-21T02:27:26.844Z,52.64
2018-07-21T02:29:55.526Z,52.88
2018-07-21T02:32:24.183Z,52.63
2018-07-21T02:34:53.142Z,52.44
2018-07-21T02:37:21.823Z,53.12
2018-07-21T02:39:50.582Z,53.01
2018-07-21T02:42:19.905Z,53.43
2018-07-21T02:44:49.143Z,53.47
2018-07-21T02:47:18.663Z,53.28
2018-07-21T02:49:48.069Z,53.22
2018-07-21T02:52:17.937Z,53.48
2018-07-21T02:54:46.576Z,53.95
2018-07-21T02:57:16.227Z,53.48
2018-07-21T02:59:46.604Z,54.22
2018-07-21T03:02:16.079Z,54.62
2018-07-21T03:04:45.510Z,54.47
2018-07-21T03:07:16.321Z,54.15
2018-07-21T03:09:45.906Z,54.78
2018-07-21T03:12:14.797Z,54.55
2018-07-21T03:14:44.611Z,54.50
2018-07-21T03:17:13.323Z,54.34
2018-07-21T03:19:42.194Z,54.59
2018-07-21T03:22:11.480Z,54.06
2018-07-21T03:24:40.278Z,54.42
2018-07-21T03:27:09.885Z,54.06
2018-07-21T03:29:39.037Z,54.11
2018-07-21T03:32:08.877Z,54.41
2018-07-21T03:34:37.813Z,54.57
2018-07-21T03:37:06.849Z,54.20
2018-07-21T03:39:36.553Z,54.33
2018-07-21T03:42:06.230Z,54.28
2018-07-21T03:44:35.869Z,53.99
2018-07-21T03:47:05.236Z,54.18
2018-07-21T03:49:35.701Z,54.32
2018-07-21T03:52:04.335Z,53.91
2018-07-21T03:54:33.047Z,54.07
2018-07-21T03:57:01.734Z,54.00
2018-07-21T03:59:31.137Z,54.16
2018-07-21T04:02:00.908Z,54.38
2018-07-21T04:04:29.867Z,54.26
2018-07-21T04:06:58.901Z,54.64
2018-07-21T04:09:27.942Z,54.32
2018-07-21T04:11:57.092Z,54.52
2018-07-21T04:14:27.310Z,54.51
2018-07-21T04:16:56.817Z,54.49
2018-07-21T04:19:25.812Z,54.50
2018-07-21T04:21:54.519Z,54.90
2018-07-21T04:24:23.183Z,54.79
2018-07-21T04:26:52.110Z,55.00
2018-07-21T04:29:20.792Z,54.45
2018-07-21T04:31:49.782Z,55.19
2018-07-21T04:34:18.739Z,55.33
2018-07-21T04:36:47.334Z,54.30
2018-07-21T04:39:16.318Z,54.44
2018-07-21T04:41:46.384Z,53.99
2018-07-21T04:44:16.946Z,54.24
2018-07-21T04:46:46.072Z,53.96
2018-07-21T04:49:16.629Z,53.72
2018-07-21T04:51:45.880Z,53.38
2018-07-21T04:54:15.678Z,53.52
2018-07-21T04:56:45.710Z,53.09
2018-07-21T04:59:15.878Z,53.01
2018-07-21T05:01:45.284Z,53.10
2018-07-21T05:04:15.760Z,53.16
2018-07-21T05:06:46.011Z,53.11
2018-07-21T05:09:14.958Z,52.99
2018-07-21T05:11:43.613Z,52.80
2018-07-21T05:14:12.542Z,52.65
2018-07-21T05:16:41.187Z,52.00
2018-07-21T05:19:09.812Z,51.91
2018-07-21T05:21:38.704Z,51.75
2018-07-21T05:24:07.454Z,52.10
2018-07-21T05:26:36.416Z,51.47
2018-07-21T05:29:05.234Z,51.51
2018-07-21T05:31:33.962Z,51.46
2018-07-21T05:34:02.814Z,51.39
2018-07-21T05:36:31.467Z,51.57
2018-07-21T05:39:01.392Z,51.04
2018-07-21T05:41:30.170Z,51.31
2018-07-21T05:44:00.259Z,51.17
2018-07-21T05:46:28.893Z,50.62
2018-07-21T05:48:57.558Z,50.79
2018-07-21T05:51:26.181Z,51.08
2018-07-21T05:53:54.931Z,50.31
2018-07-21T05:56:23.601Z,49.19
2018-07-21T05:58:53.100Z,48.87
2018-07-21T06:01:22.666Z,48.29
2018-07-21T06:03:53.063Z,47.38
2018-07-21T06:06:22.456Z,48.11
2018-07-21T06:08:52.841Z,48.21
2018-07-21T06:11:22.832Z,48.40
2018-07-21T06:13:52.129Z,48.04
2018-07-21T06:16:21.378Z,47.95
2018-07-21T06:18:51.312Z,46.58
2018-07-21T06:21:21.164Z,45.56
2018-07-21T06:23:51.173Z,45.05
2018-07-21T06:26:21.339Z,45.20
2018-07-21T06:28:50.745Z,45.27
2018-07-21T06:31:21.091Z,45.53
2018-07-21T06:33:51.027Z,46.01
2018-07-21T06:36:21.114Z,45.54
2018-07-21T06:38:50.937Z,44.29
2018-07-21T06:41:21.949Z,44.57
2018-07-21T06:43:51.435Z,43.77
2018-07-21T06:46:20.106Z,43.54
2018-07-21T06:48:49.264Z,43.29
2018-07-21T06:51:17.942Z,42.82
2018-07-21T06:53:46.815Z,42.79
2018-07-21T06:56:16.049Z,41.90
2018-07-21T06:58:44.652Z,41.20
2018-07-21T07:01:13.311Z,41.10
2018-07-21T07:03:44.769Z,41.33
2018-07-21T07:06:14.567Z,40.40
2018-07-21T07:08:43.782Z,40.58
2018-07-21T07:11:12.730Z,39.78
2018-07-21T07:13:41.474Z,39.44
2018-07-21T07:16:10.214Z,38.97
2018-07-21T07:18:38.948Z,38.49
2018-07-21T07:21:07.615Z,37.88
2018-07-21T07:23:37.620Z,36.73
2018-07-21T07:26:06.737Z,37.07
2018-07-21T07:28:36.044Z,37.04
2018-07-21T07:31:04.735Z,36.56
2018-07-21T07:33:33.790Z,35.15
2018-07-21T07:36:02.445Z,40.27
2018-07-21T07:38:31.114Z,40.78
2018-07-21T07:40:59.779Z,38.43
2018-07-21T07:43:28.669Z,37.30
2018-07-21T07:45:57.667Z,38.33
2018-07-21T07:48:26.448Z,37.08
2018-07-21T07:50:55.444Z,38.19
2018-07-21T07:53:24.156Z,38.01
2018-07-21T07:55:53.374Z,37.83
2018-07-21T07:58:22.137Z,38.32
2018-07-21T08:00:50.894Z,37.59
2018-07-21T08:03:19.807Z,37.83
2018-07-21T08:05:48.579Z,38.39
2018-07-21T08:08:17.604Z,38.19
2018-07-21T08:10:46.245Z,36.64
2018-07-21T08:13:14.884Z,36.63
2018-07-21T08:15:43.553Z,36.33
2018-07-21T08:18:12.208Z,36.82
2018-07-21T08:20:40.840Z,35.78
2018-07-21T08:23:09.686Z,35.26
2018-07-21T08:25:38.533Z,32.98
2018-07-21T08:28:07.476Z,32.60
2018-07-21T08:30:36.126Z,32.28
2018-07-21T08:33:04.846Z,32.04
2018-07-21T08:35:33.783Z,31.38
2018-07-21T08:38:02.489Z,31.03
2018-07-21T08:40:31.444Z,31.53
2018-07-21T08:43:00.103Z,30.79
2018-07-21T08:45:28.757Z,33.02
2018-07-21T08:47:58.125Z,31.69
2018-07-21T08:50:27.524Z,31.24
2018-07-21T08:52:56.313Z,30.67
2018-07-21T08:55:25.526Z,30.84
2018-07-21T08:57:54.414Z,29.73
2018-07-21T09:00:23.478Z,29.35
2018-07-21T09:02:52.283Z,28.55
2018-07-21T09:05:21.241Z,30.25
2018-07-21T09:07:50.179Z,30.09
2018-07-21T09:10:19.102Z,30.51
2018-07-21T09:16:20.508Z,28.29
2018-07-21T09:18:49.598Z,29.64
2018-07-21T09:21:18.471Z,29.50
2018-07-21T09:23:47.390Z,29.67
2018-07-21T09:26:16.317Z,29.43
2018-07-21T09:28:45.005Z,27.93
2018-07-21T09:31:13.675Z,29.43
2018-07-21T09:33:42.577Z,29.26
2018-07-21T09:36:11.295Z,29.58
2018-07-21T09:38:40.591Z,27.66
2018-07-21T09:41:09.205Z,29.74
2018-07-21T09:43:37.873Z,29.10
2018-07-21T09:46:07.843Z,28.58
2018-07-21T09:48:36.489Z,29.37
2018-07-21T09:51:05.437Z,31.98
2018-07-21T09:53:34.312Z,32.73
2018-07-21T09:56:03.400Z,32.54
2018-07-21T09:58:32.594Z,31.63
2018-07-21T10:01:02.250Z,32.74
2018-07-21T10:03:31.652Z,30.79
2018-07-21T10:06:00.580Z,32.31
2018-07-21T10:08:29.636Z,32.40
2018-07-21T10:10:58.334Z,33.62
2018-07-21T10:13:27.349Z,30.70
2018-07-21T10:15:56.015Z,31.83
2018-07-21T10:18:24.653Z,32.79
2018-07-21T10:20:53.742Z,31.81
2018-07-21T10:23:24.880Z,32.40
2018-07-21T10:25:59.283Z,30.43
2018-07-21T10:28:33.402Z,29.82
2018-07-21T10:31:02.125Z,31.54
2018-07-21T10:33:31.091Z,31.09
2018-07-21T10:35:59.730Z,32.70
2018-07-21T10:38:28.515Z,30.29
2018-07-21T10:40:57.445Z,31.53
2018-07-21T10:43:26.227Z,31.87
2018-07-21T10:45:55.506Z,30.28
2018-07-21T10:48:24.384Z,30.36
2018-07-21T10:50:53.057Z,30.21
2018-07-21T10:53:21.734Z,29.38
2018-07-21T10:55:50.556Z,31.04
2018-07-21T10:58:19.603Z,31.27
2018-07-21T11:00:48.446Z,30.42
2018-07-21T11:03:17.421Z,28.61
2018-07-21T11:05:46.184Z,31.45
2018-07-21T11:08:14.897Z,31.19
2018-07-21T11:10:43.933Z,32.13
2018-07-21T11:13:13.024Z,29.53
2018-07-21T11:15:41.765Z,32.50
2018-07-21T11:18:10.470Z,29.86
2018-07-21T11:20:39.141Z,30.38
2018-07-21T11:23:07.822Z,32.02
2018-07-21T11:25:36.534Z,32.31
2018-07-21T11:28:05.655Z,31.88
2018-07-21T11:30:34.337Z,32.71
2018-07-21T11:33:03.419Z,33.00
2018-07-21T11:35:32.152Z,33.07
2018-07-21T11:38:01.158Z,33.68
2018-07-21T11:40:29.832Z,32.22
2018-07-21T11:42:59.068Z,33.01
2018-07-21T11:45:28.103Z,31.84
2018-07-21T11:47:57.094Z,31.06
2018-07-21T11:50:25.954Z,30.65
2018-07-21T11:52:54.944Z,29.92
2018-07-21T11:55:23.968Z,29.98
2018-07-21T11:57:52.744Z,28.99
2018-07-21T12:00:21.694Z,29.56
2018-07-21T12:02:50.660Z,29.02
2018-07-21T12:05:19.685Z,28.97
2018-07-21T12:07:48.391Z,29.03
2018-07-21T12:10:17.130Z,28.13
2018-07-21T12:12:45.817Z,28.18
2018-07-21T12:15:14.871Z,27.17
2018-07-21T12:17:43.982Z,25.70
2018-07-21T12:20:12.816Z,25.31
2018-07-21T12:22:41.871Z,24.80
2018-07-21T12:25:10.599Z,24.72
2018-07-21T12:27:39.673Z,23.86
2018-07-21T12:30:10.298Z,24.22
2018-07-21T12:32:39.705Z,22.51
2018-07-21T12:35:08.636Z,21.84
2018-07-21T12:37:37.380Z,20.13
2018-07-21T12:40:06.534Z,18.31
2018-07-21T12:42:35.523Z,18.72
2018-07-21T12:45:05.222Z,16.47
2018-07-21T12:47:34.285Z,15.82
2018-07-21T12:50:03.068Z,15.76
2018-07-21T12:52:31.779Z,16.08
2018-07-21T12:55:00.521Z,16.03
2018-07-21T12:57:29.191Z,16.03
2018-07-21T12:59:58.322Z,14.55
2018-07-21T13:02:27.001Z,15.15
2018-07-21T13:04:55.663Z,15.19
2018-07-21T13:07:24.436Z,15.49
2018-07-21T13:09:53.208Z,16.86
2018-07-21T13:12:21.928Z,15.16
2018-07-21T13:14:50.650Z,17.31
2018-07-21T13:17:19.606Z,17.66
2018-07-21T13:19:49.034Z,17.64
2018-07-21T13:22:17.762Z,19.13
2018-07-21T13:24:46.557Z,17.70
2018-07-21T13:27:15.363Z,16.91
2018-07-21T13:29:43.975Z,15.85
2018-07-21T13:32:12.797Z,16.34
2018-07-21T13:34:41.454Z,16.39
2018-07-21T13:37:10.200Z,16.35
2018-07-21T13:39:38.894Z,17.05
2018-07-21T13:42:07.751Z,18.42
2018-07-21T13:44:36.452Z,20.20
2018-07-21T13:47:05.206Z,20.97
2018-07-21T13:49:33.926Z,20.65
2018-07-21T13:52:02.692Z,21.08
2018-07-21T13:54:32.351Z,21.71
2018-07-21T13:57:01.316Z,22.94
2018-07-21T13:59:30.017Z,24.06
2018-07-21T14:01:58.751Z,24.39
2018-07-21T14:04:27.841Z,24.76
2018-07-21T14:06:56.791Z,24.74
2018-07-21T14:09:25.512Z,24.51
2018-07-21T14:11:54.368Z,25.01
2018-07-21T14:14:23.522Z,25.36
2018-07-21T14:16:52.563Z,25.73
2018-07-21T14:19:21.338Z,25.66
2018-07-21T14:21:50.021Z,25.12
2018-07-21T14:24:19.094Z,23.90
2018-07-21T14:26:47.763Z,23.90
2018-07-21T14:29:16.466Z,24.91
2018-07-21T14:31:45.171Z,24.64
2018-07-21T14:34:13.853Z,25.18
2018-07-21T14:36:42.571Z,25.66
2018-07-21T14:39:14.397Z,26.78
2018-07-21T14:41:43.558Z,27.88
2018-07-21T14:44:12.384Z,28.34
2018-07-21T14:46:41.069Z,29.39
2018-07-21T14:49:09.775Z,29.39
2018-07-21T14:51:38.502Z,30.59
2018-07-21T14:54:07.234Z,30.88
2018-07-21T14:56:36.483Z,31.43
2018-07-21T14:59:05.205Z,32.00
2018-07-21T15:01:34.010Z,32.11
2018-07-21T15:04:02.668Z,32.27
2018-07-21T15:06:31.368Z,32.12
2018-07-21T15:09:00.299Z,31.63
2018-07-21T15:11:29.512Z,30.97
2018-07-21T15:13:58.496Z,31.02
2018-07-21T15:16:27.202Z,30.99
2018-07-21T15:18:55.975Z,31.90
2018-07-21T15:21:24.630Z,31.31
2018-07-21T15:23:53.885Z,31.80
2018-07-21T15:26:22.577Z,32.60
2018-07-21T15:28:51.234Z,31.99
2018-07-21T15:31:20.255Z,32.16
2018-07-21T15:33:49.312Z,32.20
2018-07-21T15:36:18.412Z,32.65
2018-07-21T15:38:47.330Z,32.44
2018-07-21T15:41:15.950Z,32.49
2018-07-21T15:43:45.858Z,32.25
2018-07-21T15:46:14.512Z,32.99
2018-07-21T15:48:43.659Z,33.33
2018-07-21T15:51:12.641Z,32.95
2018-07-21T15:53:41.393Z,32.65
2018-07-21T15:56:10.183Z,33.80
2018-07-21T15:58:39.260Z,33.15
2018-07-21T16:01:08.903Z,33.67
2018-07-21T16:03:37.605Z,33.64
2018-07-21T16:06:06.629Z,33.69
2018-07-21T16:08:35.442Z,33.15
2018-07-21T16:11:04.119Z,32.83
2018-07-21T16:13:33.142Z,33.24
2018-07-21T16:16:01.874Z,33.96
2018-07-21T16:18:30.605Z,34.31
2018-07-21T16:20:59.601Z,33.64
2018-07-21T16:23:28.376Z,34.44
2018-07-21T16:25:57.444Z,33.38
2018-07-21T16:28:26.438Z,33.77
2018-07-21T16:30:55.064Z,33.96
2018-07-21T16:33:24.136Z,34.60
2018-07-21T16:35:53.186Z,34.11
2018-07-21T16:38:21.910Z,34.12
2018-07-21T16:40:50.573Z,34.99
2018-07-21T16:43:19.830Z,35.26
2018-07-21T16:45:48.688Z,35.29
2018-07-21T16:48:17.436Z,35.14
2018-07-21T16:50:46.163Z,35.08
2018-07-21T16:53:15.220Z,34.79
2018-07-21T16:55:44.080Z,35.06
2018-07-21T16:58:13.090Z,35.15
2018-07-21T17:00:41.760Z,35.73
2018-07-21T17:03:10.538Z,35.37
2018-07-21T17:05:39.169Z,35.31
2018-07-21T17:08:07.964Z,35.63
2018-07-21T17:10:36.680Z,36.05
2018-07-21T17:13:05.421Z,36.53
2018-07-21T17:15:34.148Z,36.56
2018-07-21T17:18:02.870Z,36.12
2018-07-21T17:20:31.604Z,35.79
2018-07-21T17:23:00.392Z,35.91
2018-07-21T17:25:29.102Z,36.65
2018-07-21T17:27:58.124Z,36.10
2018-07-21T17:30:27.019Z,36.39
2018-07-21T17:32:56.029Z,36.00
2018-07-21T17:35:24.746Z,36.48
2018-07-21T17:37:53.549Z,36.22
2018-07-21T17:40:22.579Z,36.08
2018-07-21T17:42:51.551Z,36.33
2018-07-21T17:45:20.298Z,36.17
2018-07-21T17:47:49.130Z,36.20
2018-07-21T17:50:17.882Z,36.17
2018-07-21T17:52:46.709Z,36.15
2018-07-21T17:55:15.356Z,36.10
2018-07-21T17:57:44.358Z,36.79
2018-07-21T18:00:13.207Z,36.21
2018-07-21T18:02:41.899Z,35.83
2018-07-21T18:05:10.635Z,36.60
2018-07-21T18:07:39.393Z,36.99
2018-07-21T18:10:08.245Z,36.61
2018-07-21T18:12:36.942Z,36.45
2018-07-21T18:15:06.071Z,36.34
2018-07-21T18:17:34.863Z,36.20
2018-07-21T18:20:03.861Z,37.08
2018-07-21T18:22:32.621Z,36.92
2018-07-21T18:25:01.597Z,37.40
2018-07-21T18:27:30.763Z,36.88
2018-07-21T18:29:59.533Z,37.26
2018-07-21T18:32:28.625Z,37.43
2018-07-21T18:34:57.712Z,37.75
2018-07-21T18:37:26.472Z,37.64
2018-07-21T18:39:55.199Z,38.33
2018-07-21T18:42:23.999Z,37.72
2018-07-21T18:44:52.692Z,38.61
2018-07-21T18:47:21.374Z,38.24
2018-07-21T18:49:50.061Z,39.06
2018-07-21T18:52:18.707Z,38.86
2018-07-21T18:54:47.414Z,38.53
2018-07-21T18:57:16.436Z,38.88
2018-07-21T18:59:45.337Z,39.43
2018-07-21T19:02:14.477Z,39.31
2018-07-21T19:04:43.198Z,39.52
2018-07-21T19:07:11.950Z,39.69
2018-07-21T19:09:40.648Z,39.16
2018-07-21T19:12:14.710Z,39.80
2018-07-21T19:14:43.379Z,39.63
2018-07-21T19:17:12.129Z,39.68
2018-07-21T19:19:46.001Z,39.49
2018-07-21T19:22:14.789Z,39.37
2018-07-21T19:24:43.482Z,39.81
2018-07-21T19:27:17.417Z,40.09
2018-07-21T19:29:46.821Z,40.24
2018-07-21T19:32:20.866Z,40.34
2018-07-21T19:34:49.581Z,40.74
2018-07-21T19:37:23.493Z,40.50
2018-07-21T19:39:52.292Z,40.35
2018-07-21T19:42:20.973Z,39.48
2018-07-21T19:44:49.629Z,40.00
2018-07-21T19:47:18.328Z,40.85
2018-07-21T19:49:48.083Z,40.13
2018-07-21T19:52:16.978Z,41.00
2018-07-21T19:54:45.732Z,40.88
2018-07-21T19:57:14.367Z,41.15
2018-07-21T19:59:43.014Z,40.90
2018-07-21T20:02:11.736Z,41.33
2018-07-21T20:04:40.444Z,41.09
2018-07-21T20:07:09.570Z,41.23
2018-07-21T20:09:38.834Z,41.80
2018-07-21T20:12:07.697Z,41.16
2018-07-21T20:14:36.660Z,41.16
2018-07-21T20:17:06.270Z,42.12
2018-07-21T20:19:35.019Z,42.00
2018-07-21T20:22:03.805Z,42.11
2018-07-21T20:24:32.554Z,41.51
2018-07-21T20:27:01.331Z,42.01
2018-07-21T20:29:30.108Z,42.08
2018-07-21T20:31:59.203Z,42.55
2018-07-21T20:34:27.961Z,41.11
2018-07-21T20:36:56.990Z,41.35
2018-07-21T20:39:25.774Z,40.99
2018-07-21T20:41:54.566Z,41.37
2018-07-21T20:44:23.256Z,41.13
2018-07-21T20:46:52.141Z,41.45
2018-07-21T20:49:20.895Z,41.97
2018-07-21T20:51:49.719Z,41.56
2018-07-21T20:54:18.426Z,42.36
2018-07-21T20:56:47.418Z,42.43
2018-07-21T20:59:16.502Z,41.93
2018-07-21T21:01:45.297Z,42.59
2018-07-21T21:04:14.102Z,42.67
2018-07-21T21:06:42.836Z,42.86
2018-07-21T21:09:12.362Z,42.20
2018-07-21T21:11:41.966Z,41.73
2018-07-21T21:14:10.802Z,41.94
2018-07-21T21:16:39.583Z,42.58
2018-07-21T21:19:08.305Z,42.19
2018-07-21T21:21:37.018Z,42.43
2018-07-21T21:24:06.173Z,42.55
2018-07-21T21:26:35.118Z,42.28
2018-07-21T21:29:03.875Z,42.09
2018-07-21T21:31:32.663Z,42.26
2018-07-21T21:34:01.613Z,42.08
2018-07-21T21:36:30.824Z,42.23
2018-07-21T21:38:59.866Z,43.07
2018-07-21T21:41:28.626Z,42.63
2018-07-21T21:43:57.324Z,43.08
2018-07-21T21:46:26.258Z,42.56
2018-07-21T21:48:54.992Z,43.56
2018-07-21T21:51:23.737Z,42.81
2018-07-21T21:53:53.217Z,43.59
2018-07-21T21:56:22.512Z,42.93
2018-07-21T21:58:51.285Z,41.81
2018-07-21T22:01:20.805Z,42.73
2018-07-21T22:03:51.781Z,43.74
2018-07-21T22:06:21.490Z,43.16
2018-07-21T22:08:52.535Z,43.45
2018-07-21T22:11:21.885Z,42.77
2018-07-21T22:13:50.789Z,43.08
2018-07-21T22:16:19.721Z,42.09
2018-07-21T22:18:48.521Z,43.59
2018-07-21T22:21:17.555Z,42.80
2018-07-21T22:23:46.257Z,42.85
2018-07-21T22:26:14.929Z,42.55
2018-07-21T22:28:43.607Z,43.29
2018-07-21T22:31:12.365Z,43.28
2018-07-21T22:33:41.129Z,43.00
2018-07-21T22:36:10.342Z,42.91
2018-07-21T22:38:38.986Z,42.71
2018-07-21T22:41:07.641Z,42.53
2018-07-21T22:43:36.729Z,42.71
2018-07-21T22:46:06.142Z,42.68
2018-07-21T22:48:35.149Z,43.62
2018-07-21T22:51:04.523Z,43.71
2018-07-21T22:53:33.541Z,43.96
2018-07-21T22:56:02.176Z,43.77
2018-07-21T22:58:30.838Z,42.48
2018-07-21T23:00:59.874Z,43.02
2018-07-21T23:03:28.488Z,43.18
2018-07-21T23:05:58.055Z,43.75
2018-07-21T23:08:26.705Z,44.47
2018-07-21T23:10:56.288Z,43.55
2018-07-21T23:13:25.254Z,43.94
2018-07-21T23:15:53.899Z,44.35
2018-07-21T23:18:23.633Z,44.12
2018-07-21T23:20:52.413Z,44.35
2018-07-21T23:23:21.110Z,43.39
2018-07-21T23:25:50.111Z,44.48
2018-07-21T23:28:18.755Z,45.15
2018-07-21T23:30:47.781Z,44.75
2018-07-21T23:33:16.461Z,44.52
2018-07-21T23:35:45.135Z,44.93
2018-07-21T23:38:14.413Z,44.49
2018-07-21T23:40:43.068Z,44.15
2018-07-21T23:43:12.146Z,44.51
2018-07-21T23:45:40.806Z,43.76
2018-07-21T23:48:09.470Z,44.60
2018-07-21T23:50:38.155Z,44.23
2018-07-21T23:53:07.445Z,44.98
2018-07-21T23:55:36.109Z,44.63
2018-07-21T23:58:07.834Z,45.17
